sensor_id;sensor_type;location;lat;lon;timestamp;temperature;humidity
42365;DHT22;28498;54.400;18.566;2024-01-11T00:01:00;1.30;99.90
42365;DHT22;28498;54.400;18.566;2024-01-11T00:03:27;1.30;99.90
42365;DHT22;28498;54.400;18.566;2024-01-11T00:05:54;1.30;99.90
42365;DHT22;28498;54.400;18.566;2024-01-11T00:08:21;1.30;99.90
42365;DHT22;28498;54.400;18.566;2024-01-11T00:10:49;1.30;99.90
42365;DHT22;28498;54.400;18.566;2024-01-11T00:13:16;1.40;99.90
42365;DHT22;28498;54.400;18.566;2024-01-11T00:15:43;1.30;99.90
42365;DHT22;28498;54.400;18.566;2024-01-11T00:18:10;1.30;99.90
42365;DHT22;28498;54.400;18.566;2024-01-11T00:20:38;1.30;99.90
42365;DHT22;28498;54.400;18.566;2024-01-11T00:23:05;1.30;99.90
42365;DHT22;28498;54.400;18.566;2024-01-11T00:25:32;1.40;99.90
42365;DHT22;28498;54.400;18.566;2024-01-11T00:27:59;1.30;99.90
42365;DHT22;28498;54.400;18.566;2024-01-11T00:30:26;1.30;99.90
42365;DHT22;28498;54.400;18.566;2024-01-11T00:32:53;1.40;99.90
42365;DHT22;28498;54.400;18.566;2024-01-11T00:35:20;1.30;99.90
42365;DHT22;28498;54.400;18.566;2024-01-11T00:37:47;1.40;99.90
42365;DHT22;28498;54.400;18.566;2024-01-11T00:40:14;1.30;99.90
42365;DHT22;28498;54.400;18.566;2024-01-11T00:42:41;1.50;99.90
42365;DHT22;28498;54.400;18.566;2024-01-11T00:45:08;1.40;99.90
42365;DHT22;28498;54.400;18.566;2024-01-11T00:47:35;1.40;99.90
42365;DHT22;28498;54.400;18.566;2024-01-11T00:50:03;1.40;99.90
42365;DHT22;28498;54.400;18.566;2024-01-11T00:52:30;1.40;99.90
42365;DHT22;28498;54.400;18.566;2024-01-11T00:54:57;1.50;99.90
42365;DHT22;28498;54.400;18.566;2024-01-11T00:57:24;1.40;99.90
42365;DHT22;28498;54.400;18.566;2024-01-11T00:59:51;1.40;99.90
42365;DHT22;28498;54.400;18.566;2024-01-11T01:02:20;1.40;99.90
42365;DHT22;28498;54.400;18.566;2024-01-11T01:04:47;1.60;99.90
42365;DHT22;28498;54.400;18.566;2024-01-11T01:07:14;1.50;99.90
42365;DHT22;28498;54.400;18.566;2024-01-11T01:09:41;1.50;99.90
42365;DHT22;28498;54.400;18.566;2024-01-11T01:12:08;1.50;99.90
42365;DHT22;28498;54.400;18.566;2024-01-11T01:14:35;1.50;99.90
42365;DHT22;28498;54.400;18.566;2024-01-11T01:17:03;1.50;99.90
42365;DHT22;28498;54.400;18.566;2024-01-11T01:19:30;1.50;99.90
42365;DHT22;28498;54.400;18.566;2024-01-11T01:21:57;1.50;99.90
42365;DHT22;28498;54.400;18.566;2024-01-11T01:24:24;1.60;99.90
42365;DHT22;28498;54.400;18.566;2024-01-11T01:26:51;1.60;99.90
42365;DHT22;28498;54.400;18.566;2024-01-11T01:29:18;1.60;99.90
42365;DHT22;28498;54.400;18.566;2024-01-11T01:31:45;1.60;99.90
42365;DHT22;28498;54.400;18.566;2024-01-11T01:34:12;1.60;99.90
42365;DHT22;28498;54.400;18.566;2024-01-11T01:36:41;1.60;99.90
42365;DHT22;28498;54.400;18.566;2024-01-11T01:39:08;1.70;99.90
42365;DHT22;28498;54.400;18.566;2024-01-11T01:41:35;1.70;99.90
42365;DHT22;28498;54.400;18.566;2024-01-11T01:44:02;1.60;99.90
42365;DHT22;28498;54.400;18.566;2024-01-11T01:46:30;1.70;99.90
42365;DHT22;28498;54.400;18.566;2024-01-11T01:48:58;1.70;99.90
42365;DHT22;28498;54.400;18.566;2024-01-11T01:51:28;1.70;99.90
42365;DHT22;28498;54.400;18.566;2024-01-11T01:53:56;1.60;99.90
42365;DHT22;28498;54.400;18.566;2024-01-11T01:56:24;1.60;99.90
42365;DHT22;28498;54.400;18.566;2024-01-11T01:58:52;1.60;99.90
42365;DHT22;28498;54.400;18.566;2024-01-11T02:01:21;1.60;99.90
42365;DHT22;28498;54.400;18.566;2024-01-11T02:03:52;1.60;99.90
42365;DHT22;28498;54.400;18.566;2024-01-11T02:06:25;1.70;99.90
42365;DHT22;28498;54.400;18.566;2024-01-11T02:08:56;1.60;99.90
42365;DHT22;28498;54.400;18.566;2024-01-11T02:11:25;1.60;99.90
42365;DHT22;28498;54.400;18.566;2024-01-11T02:13:52;1.60;99.90
42365;DHT22;28498;54.400;18.566;2024-01-11T02:16:20;1.50;99.90
42365;DHT22;28498;54.400;18.566;2024-01-11T02:18:47;1.50;99.90
42365;DHT22;28498;54.400;18.566;2024-01-11T02:21:15;1.50;99.90
42365;DHT22;28498;54.400;18.566;2024-01-11T02:26:25;1.50;99.90
42365;DHT22;28498;54.400;18.566;2024-01-11T02:28:52;1.50;99.90
42365;DHT22;28498;54.400;18.566;2024-01-11T02:31:19;1.50;99.90
42365;DHT22;28498;54.400;18.566;2024-01-11T02:33:47;1.50;99.90
42365;DHT22;28498;54.400;18.566;2024-01-11T02:36:15;1.60;99.90
42365;DHT22;28498;54.400;18.566;2024-01-11T02:38:42;1.50;99.90
42365;DHT22;28498;54.400;18.566;2024-01-11T02:41:10;1.60;99.90
42365;DHT22;28498;54.400;18.566;2024-01-11T02:43:38;1.50;99.90
42365;DHT22;28498;54.400;18.566;2024-01-11T02:46:06;1.60;99.90
42365;DHT22;28498;54.400;18.566;2024-01-11T02:48:33;1.50;99.90
42365;DHT22;28498;54.400;18.566;2024-01-11T02:51:00;1.60;99.90
42365;DHT22;28498;54.400;18.566;2024-01-11T02:53:27;1.60;99.90
42365;DHT22;28498;54.400;18.566;2024-01-11T02:55:54;1.60;99.90
42365;DHT22;28498;54.400;18.566;2024-01-11T02:58:21;1.60;99.90
42365;DHT22;28498;54.400;18.566;2024-01-11T03:00:48;1.60;99.90
42365;DHT22;28498;54.400;18.566;2024-01-11T03:03:15;1.60;99.90
42365;DHT22;28498;54.400;18.566;2024-01-11T03:05:42;1.60;99.90
42365;DHT22;28498;54.400;18.566;2024-01-11T03:08:09;1.50;99.90
42365;DHT22;28498;54.400;18.566;2024-01-11T03:10:39;1.50;99.90
42365;DHT22;28498;54.400;18.566;2024-01-11T03:13:07;1.50;99.90
42365;DHT22;28498;54.400;18.566;2024-01-11T03:15:34;1.50;99.90
42365;DHT22;28498;54.400;18.566;2024-01-11T03:18:01;1.50;99.90
42365;DHT22;28498;54.400;18.566;2024-01-11T03:20:28;1.50;99.90
42365;DHT22;28498;54.400;18.566;2024-01-11T03:22:56;1.50;99.90
42365;DHT22;28498;54.400;18.566;2024-01-11T03:25:23;1.50;99.90
42365;DHT22;28498;54.400;18.566;2024-01-11T03:27:50;1.50;99.90
42365;DHT22;28498;54.400;18.566;2024-01-11T03:30:17;1.50;99.90
42365;DHT22;28498;54.400;18.566;2024-01-11T03:32:44;1.50;99.90
42365;DHT22;28498;54.400;18.566;2024-01-11T03:35:13;1.50;99.90
42365;DHT22;28498;54.400;18.566;2024-01-11T03:37:40;1.50;99.90
42365;DHT22;28498;54.400;18.566;2024-01-11T03:40:07;1.40;99.90
42365;DHT22;28498;54.400;18.566;2024-01-11T03:42:35;1.40;99.90
42365;DHT22;28498;54.400;18.566;2024-01-11T03:45:02;1.60;99.90
42365;DHT22;28498;54.400;18.566;2024-01-11T03:47:30;1.50;99.90
42365;DHT22;28498;54.400;18.566;2024-01-11T03:49:57;1.50;99.90
42365;DHT22;28498;54.400;18.566;2024-01-11T03:52:24;1.50;99.90
42365;DHT22;28498;54.400;18.566;2024-01-11T03:54:51;1.50;99.90
42365;DHT22;28498;54.400;18.566;2024-01-11T03:57:18;1.50;99.90
42365;DHT22;28498;54.400;18.566;2024-01-11T03:59:45;1.50;99.90
42365;DHT22;28498;54.400;18.566;2024-01-11T04:02:12;1.50;99.90
42365;DHT22;28498;54.400;18.566;2024-01-11T04:04:41;1.50;99.90
42365;DHT22;28498;54.400;18.566;2024-01-11T04:07:08;1.50;99.90
42365;DHT22;28498;54.400;18.566;2024-01-11T04:09:39;1.60;99.90
42365;DHT22;28498;54.400;18.566;2024-01-11T04:12:07;1.50;99.90
42365;DHT22;28498;54.400;18.566;2024-01-11T04:14:38;1.50;99.90
42365;DHT22;28498;54.400;18.566;2024-01-11T04:17:06;1.50;99.90
42365;DHT22;28498;54.400;18.566;2024-01-11T04:19:33;1.50;99.90
42365;DHT22;28498;54.400;18.566;2024-01-11T04:22:00;1.50;99.90
42365;DHT22;28498;54.400;18.566;2024-01-11T04:24:27;1.50;99.90
42365;DHT22;28498;54.400;18.566;2024-01-11T04:26:54;1.50;99.90
42365;DHT22;28498;54.400;18.566;2024-01-11T04:29:21;1.60;99.90
42365;DHT22;28498;54.400;18.566;2024-01-11T04:31:48;1.60;99.90
42365;DHT22;28498;54.400;18.566;2024-01-11T04:34:16;1.50;99.90
42365;DHT22;28498;54.400;18.566;2024-01-11T04:36:43;1.60;99.90
42365;DHT22;28498;54.400;18.566;2024-01-11T04:39:10;1.60;99.90
42365;DHT22;28498;54.400;18.566;2024-01-11T04:41:38;1.60;99.90
42365;DHT22;28498;54.400;18.566;2024-01-11T04:44:06;1.40;99.90
42365;DHT22;28498;54.400;18.566;2024-01-11T04:46:33;1.50;99.90
42365;DHT22;28498;54.400;18.566;2024-01-11T04:49:00;1.60;99.90
42365;DHT22;28498;54.400;18.566;2024-01-11T04:51:27;1.60;99.90
42365;DHT22;28498;54.400;18.566;2024-01-11T04:53:54;1.70;99.90
42365;DHT22;28498;54.400;18.566;2024-01-11T04:56:21;1.60;99.90
42365;DHT22;28498;54.400;18.566;2024-01-11T04:58:48;1.60;99.90
42365;DHT22;28498;54.400;18.566;2024-01-11T05:01:16;1.60;99.90
42365;DHT22;28498;54.400;18.566;2024-01-11T05:03:45;1.60;99.90
42365;DHT22;28498;54.400;18.566;2024-01-11T05:06:19;1.70;99.90
42365;DHT22;28498;54.400;18.566;2024-01-11T05:08:48;1.60;99.90
42365;DHT22;28498;54.400;18.566;2024-01-11T05:11:20;1.60;99.90
42365;DHT22;28498;54.400;18.566;2024-01-11T05:13:48;1.60;99.90
42365;DHT22;28498;54.400;18.566;2024-01-11T05:16:20;1.70;99.90
42365;DHT22;28498;54.400;18.566;2024-01-11T05:18:48;1.70;99.90
42365;DHT22;28498;54.400;18.566;2024-01-11T05:21:15;1.70;99.90
42365;DHT22;28498;54.400;18.566;2024-01-11T05:23:42;1.70;99.90
42365;DHT22;28498;54.400;18.566;2024-01-11T05:26:10;1.70;99.90
42365;DHT22;28498;54.400;18.566;2024-01-11T05:28:37;1.80;99.90
42365;DHT22;28498;54.400;18.566;2024-01-11T05:31:10;1.70;99.90
42365;DHT22;28498;54.400;18.566;2024-01-11T05:33:41;1.70;99.90
42365;DHT22;28498;54.400;18.566;2024-01-11T05:36:09;1.80;99.90
42365;DHT22;28498;54.400;18.566;2024-01-11T05:38:37;1.80;99.90
42365;DHT22;28498;54.400;18.566;2024-01-11T05:41:05;1.70;99.90
42365;DHT22;28498;54.400;18.566;2024-01-11T05:43:32;1.80;99.90
42365;DHT22;28498;54.400;18.566;2024-01-11T05:45:59;1.80;99.90
42365;DHT22;28498;54.400;18.566;2024-01-11T05:48:26;1.80;99.90
42365;DHT22;28498;54.400;18.566;2024-01-11T05:50:53;1.80;99.90
42365;DHT22;28498;54.400;18.566;2024-01-11T05:53:20;1.80;99.90
42365;DHT22;28498;54.400;18.566;2024-01-11T05:55:48;1.80;99.90
42365;DHT22;28498;54.400;18.566;2024-01-11T05:58:18;1.70;99.90
42365;DHT22;28498;54.400;18.566;2024-01-11T06:00:44;1.80;99.90
42365;DHT22;28498;54.400;18.566;2024-01-11T06:03:12;1.80;99.90
42365;DHT22;28498;54.400;18.566;2024-01-11T06:05:39;1.70;99.90
42365;DHT22;28498;54.400;18.566;2024-01-11T06:08:07;1.80;99.90
42365;DHT22;28498;54.400;18.566;2024-01-11T06:10:34;1.70;99.90
42365;DHT22;28498;54.400;18.566;2024-01-11T06:13:01;1.80;99.90
42365;DHT22;28498;54.400;18.566;2024-01-11T06:15:28;1.80;99.90
42365;DHT22;28498;54.400;18.566;2024-01-11T06:17:55;1.80;99.90
42365;DHT22;28498;54.400;18.566;2024-01-11T06:20:22;1.70;99.90
42365;DHT22;28498;54.400;18.566;2024-01-11T06:22:51;1.80;99.90
42365;DHT22;28498;54.400;18.566;2024-01-11T06:25:18;1.80;99.90
42365;DHT22;28498;54.400;18.566;2024-01-11T06:27:47;1.80;99.90
42365;DHT22;28498;54.400;18.566;2024-01-11T06:30:14;1.80;99.90
42365;DHT22;28498;54.400;18.566;2024-01-11T06:32:41;1.70;99.90
42365;DHT22;28498;54.400;18.566;2024-01-11T06:35:08;1.70;99.90
42365;DHT22;28498;54.400;18.566;2024-01-11T06:37:36;1.60;99.90
42365;DHT22;28498;54.400;18.566;2024-01-11T06:40:03;1.70;99.90
42365;DHT22;28498;54.400;18.566;2024-01-11T06:42:31;1.80;99.90
42365;DHT22;28498;54.400;18.566;2024-01-11T06:44:58;1.80;99.90
42365;DHT22;28498;54.400;18.566;2024-01-11T06:47:25;1.90;99.90
42365;DHT22;28498;54.400;18.566;2024-01-11T06:49:53;1.90;99.90
42365;DHT22;28498;54.400;18.566;2024-01-11T06:52:23;1.80;99.90
42365;DHT22;28498;54.400;18.566;2024-01-11T06:54:50;1.80;99.90
42365;DHT22;28498;54.400;18.566;2024-01-11T06:57:17;1.70;99.90
42365;DHT22;28498;54.400;18.566;2024-01-11T06:59:44;1.80;99.90
42365;DHT22;28498;54.400;18.566;2024-01-11T07:02:13;1.80;99.90
42365;DHT22;28498;54.400;18.566;2024-01-11T07:04:43;1.80;99.90
42365;DHT22;28498;54.400;18.566;2024-01-11T07:07:11;1.80;99.90
42365;DHT22;28498;54.400;18.566;2024-01-11T07:09:38;1.70;99.90
42365;DHT22;28498;54.400;18.566;2024-01-11T07:12:06;1.70;99.90
42365;DHT22;28498;54.400;18.566;2024-01-11T07:14:33;1.80;99.90
42365;DHT22;28498;54.400;18.566;2024-01-11T07:17:00;1.80;99.90
42365;DHT22;28498;54.400;18.566;2024-01-11T07:19:27;1.80;99.90
42365;DHT22;28498;54.400;18.566;2024-01-11T07:21:54;1.80;99.90
42365;DHT22;28498;54.400;18.566;2024-01-11T07:24:21;1.80;99.90
42365;DHT22;28498;54.400;18.566;2024-01-11T07:26:48;1.70;99.90
42365;DHT22;28498;54.400;18.566;2024-01-11T07:29:15;1.80;99.90
42365;DHT22;28498;54.400;18.566;2024-01-11T07:31:42;1.80;99.90
42365;DHT22;28498;54.400;18.566;2024-01-11T07:34:09;1.80;99.90
42365;DHT22;28498;54.400;18.566;2024-01-11T07:40:38;1.80;99.90
42365;DHT22;28498;54.400;18.566;2024-01-11T07:43:09;1.80;99.90
42365;DHT22;28498;54.400;18.566;2024-01-11T07:45:36;1.90;99.90
42365;DHT22;28498;54.400;18.566;2024-01-11T07:48:04;1.90;99.90
42365;DHT22;28498;54.400;18.566;2024-01-11T07:54:13;1.90;99.90
42365;DHT22;28498;54.400;18.566;2024-01-11T08:00:21;2.00;99.90
42365;DHT22;28498;54.400;18.566;2024-01-11T08:02:48;2.00;99.90
42365;DHT22;28498;54.400;18.566;2024-01-11T08:05:15;2.00;99.90
42365;DHT22;28498;54.400;18.566;2024-01-11T08:07:43;2.10;99.90
42365;DHT22;28498;54.400;18.566;2024-01-11T08:10:10;2.00;99.90
42365;DHT22;28498;54.400;18.566;2024-01-11T08:12:37;2.00;99.90
42365;DHT22;28498;54.400;18.566;2024-01-11T08:15:05;2.00;99.90
42365;DHT22;28498;54.400;18.566;2024-01-11T08:17:32;2.10;99.90
42365;DHT22;28498;54.400;18.566;2024-01-11T08:19:59;2.20;99.90
42365;DHT22;28498;54.400;18.566;2024-01-11T08:22:26;2.20;99.90
42365;DHT22;28498;54.400;18.566;2024-01-11T08:24:55;2.20;99.90
42365;DHT22;28498;54.400;18.566;2024-01-11T08:27:22;2.30;99.90
42365;DHT22;28498;54.400;18.566;2024-01-11T08:29:49;2.30;99.90
42365;DHT22;28498;54.400;18.566;2024-01-11T08:32:16;2.30;99.90
42365;DHT22;28498;54.400;18.566;2024-01-11T08:34:57;2.40;99.90
42365;DHT22;28498;54.400;18.566;2024-01-11T08:37:25;2.40;99.90
42365;DHT22;28498;54.400;18.566;2024-01-11T08:39:52;2.40;99.90
42365;DHT22;28498;54.400;18.566;2024-01-11T08:42:19;2.50;99.90
42365;DHT22;28498;54.400;18.566;2024-01-11T08:44:46;2.50;99.90
42365;DHT22;28498;54.400;18.566;2024-01-11T08:47:14;2.50;99.90
42365;DHT22;28498;54.400;18.566;2024-01-11T08:49:42;2.50;99.90
42365;DHT22;28498;54.400;18.566;2024-01-11T08:52:09;2.50;99.90
42365;DHT22;28498;54.400;18.566;2024-01-11T08:54:36;2.40;99.90
42365;DHT22;28498;54.400;18.566;2024-01-11T08:57:04;2.40;99.90
42365;DHT22;28498;54.400;18.566;2024-01-11T08:59:31;2.40;99.90
42365;DHT22;28498;54.400;18.566;2024-01-11T09:01:58;2.40;99.90
42365;DHT22;28498;54.400;18.566;2024-01-11T09:04:40;2.50;99.90
42365;DHT22;28498;54.400;18.566;2024-01-11T09:07:08;2.50;99.90
42365;DHT22;28498;54.400;18.566;2024-01-11T09:09:35;2.40;99.90
42365;DHT22;28498;54.400;18.566;2024-01-11T09:12:16;2.50;99.90
42365;DHT22;28498;54.400;18.566;2024-01-11T09:14:43;2.60;99.90
42365;DHT22;28498;54.400;18.566;2024-01-11T09:17:10;2.70;99.90
42365;DHT22;28498;54.400;18.566;2024-01-11T09:19:38;2.80;99.90
42365;DHT22;28498;54.400;18.566;2024-01-11T09:22:06;2.80;99.90
42365;DHT22;28498;54.400;18.566;2024-01-11T09:28:17;2.80;99.90
42365;DHT22;28498;54.400;18.566;2024-01-11T09:30:45;2.90;99.90
42365;DHT22;28498;54.400;18.566;2024-01-11T09:33:12;3.00;99.90
42365;DHT22;28498;54.400;18.566;2024-01-11T09:35:40;3.00;99.90
42365;DHT22;28498;54.400;18.566;2024-01-11T09:38:07;3.00;99.90
42365;DHT22;28498;54.400;18.566;2024-01-11T09:40:34;3.00;99.90
42365;DHT22;28498;54.400;18.566;2024-01-11T09:43:03;3.10;99.90
42365;DHT22;28498;54.400;18.566;2024-01-11T09:45:31;3.10;99.90
42365;DHT22;28498;54.400;18.566;2024-01-11T09:47:59;3.20;99.90
42365;DHT22;28498;54.400;18.566;2024-01-11T09:50:26;3.30;99.90
42365;DHT22;28498;54.400;18.566;2024-01-11T09:52:55;3.40;99.90
42365;DHT22;28498;54.400;18.566;2024-01-11T09:55:22;3.40;99.90
42365;DHT22;28498;54.400;18.566;2024-01-11T09:57:52;3.40;99.90
42365;DHT22;28498;54.400;18.566;2024-01-11T10:00:25;3.30;99.90
42365;DHT22;28498;54.400;18.566;2024-01-11T10:02:52;3.30;99.90
42365;DHT22;28498;54.400;18.566;2024-01-11T10:05:20;3.30;99.90
42365;DHT22;28498;54.400;18.566;2024-01-11T10:07:47;3.30;99.90
42365;DHT22;28498;54.400;18.566;2024-01-11T10:10:14;3.50;99.90
42365;DHT22;28498;54.400;18.566;2024-01-11T10:12:44;3.50;99.90
42365;DHT22;28498;54.400;18.566;2024-01-11T10:15:12;3.40;99.90
42365;DHT22;28498;54.400;18.566;2024-01-11T10:17:42;3.40;99.90
42365;DHT22;28498;54.400;18.566;2024-01-11T10:20:13;3.40;99.90
42365;DHT22;28498;54.400;18.566;2024-01-11T10:22:41;3.50;99.90
42365;DHT22;28498;54.400;18.566;2024-01-11T10:25:13;3.50;99.90
42365;DHT22;28498;54.400;18.566;2024-01-11T10:27:41;3.50;99.90
42365;DHT22;28498;54.400;18.566;2024-01-11T10:30:10;3.50;99.90
42365;DHT22;28498;54.400;18.566;2024-01-11T10:32:40;3.60;99.90
42365;DHT22;28498;54.400;18.566;2024-01-11T10:35:07;3.50;99.90
42365;DHT22;28498;54.400;18.566;2024-01-11T10:37:35;3.60;99.90
42365;DHT22;28498;54.400;18.566;2024-01-11T10:40:05;3.50;99.90
42365;DHT22;28498;54.400;18.566;2024-01-11T10:42:45;3.50;99.90
42365;DHT22;28498;54.400;18.566;2024-01-11T10:45:17;3.60;99.90
42365;DHT22;28498;54.400;18.566;2024-01-11T10:47:52;3.60;99.90
42365;DHT22;28498;54.400;18.566;2024-01-11T10:50:23;3.60;99.90
42365;DHT22;28498;54.400;18.566;2024-01-11T10:53:00;3.60;99.90
42365;DHT22;28498;54.400;18.566;2024-01-11T10:55:32;3.60;99.90
42365;DHT22;28498;54.400;18.566;2024-01-11T10:58:00;3.60;99.90
42365;DHT22;28498;54.400;18.566;2024-01-11T11:00:31;3.60;99.90
42365;DHT22;28498;54.400;18.566;2024-01-11T11:03:00;3.50;99.90
42365;DHT22;28498;54.400;18.566;2024-01-11T11:05:28;3.50;99.90
42365;DHT22;28498;54.400;18.566;2024-01-11T11:08:01;3.50;99.90
42365;DHT22;28498;54.400;18.566;2024-01-11T11:10:30;3.50;99.90
42365;DHT22;28498;54.400;18.566;2024-01-11T11:12:58;3.50;99.90
42365;DHT22;28498;54.400;18.566;2024-01-11T11:15:31;3.40;99.90
42365;DHT22;28498;54.400;18.566;2024-01-11T11:17:58;3.50;99.90
42365;DHT22;28498;54.400;18.566;2024-01-11T11:20:28;3.50;99.90
42365;DHT22;28498;54.400;18.566;2024-01-11T11:23:05;3.50;99.90
42365;DHT22;28498;54.400;18.566;2024-01-11T11:25:34;3.50;99.90
42365;DHT22;28498;54.400;18.566;2024-01-11T11:28:02;3.40;99.90
42365;DHT22;28498;54.400;18.566;2024-01-11T11:30:33;3.50;99.90
42365;DHT22;28498;54.400;18.566;2024-01-11T11:33:25;3.50;99.90
42365;DHT22;28498;54.400;18.566;2024-01-11T11:35:59;3.40;99.90
42365;DHT22;28498;54.400;18.566;2024-01-11T11:38:27;3.40;99.90
42365;DHT22;28498;54.400;18.566;2024-01-11T11:40:59;3.50;99.90
42365;DHT22;28498;54.400;18.566;2024-01-11T11:43:28;3.50;99.90
42365;DHT22;28498;54.400;18.566;2024-01-11T11:45:56;3.50;99.90
42365;DHT22;28498;54.400;18.566;2024-01-11T11:51:14;3.50;99.90
42365;DHT22;28498;54.400;18.566;2024-01-11T11:53:50;3.40;99.90
42365;DHT22;28498;54.400;18.566;2024-01-11T11:56:22;3.40;99.90
42365;DHT22;28498;54.400;18.566;2024-01-11T11:58:50;3.30;99.90
42365;DHT22;28498;54.400;18.566;2024-01-11T12:01:19;3.30;99.90
42365;DHT22;28498;54.400;18.566;2024-01-11T12:03:47;3.30;99.90
42365;DHT22;28498;54.400;18.566;2024-01-11T12:06:19;3.30;99.90
42365;DHT22;28498;54.400;18.566;2024-01-11T12:08:47;3.30;99.90
42365;DHT22;28498;54.400;18.566;2024-01-11T12:11:24;3.20;99.90
42365;DHT22;28498;54.400;18.566;2024-01-11T12:13:52;3.20;99.90
42365;DHT22;28498;54.400;18.566;2024-01-11T12:16:20;3.20;99.90
42365;DHT22;28498;54.400;18.566;2024-01-11T12:18:49;3.20;99.90
42365;DHT22;28498;54.400;18.566;2024-01-11T12:21:16;3.20;99.90
42365;DHT22;28498;54.400;18.566;2024-01-11T12:23:44;3.20;99.90
42365;DHT22;28498;54.400;18.566;2024-01-11T12:26:11;3.10;99.90
42365;DHT22;28498;54.400;18.566;2024-01-11T12:28:41;3.10;99.90
42365;DHT22;28498;54.400;18.566;2024-01-11T12:31:09;3.10;99.90
42365;DHT22;28498;54.400;18.566;2024-01-11T12:33:37;3.00;99.90
42365;DHT22;28498;54.400;18.566;2024-01-11T12:36:06;3.10;99.90
42365;DHT22;28498;54.400;18.566;2024-01-11T12:38:35;3.10;99.90
42365;DHT22;28498;54.400;18.566;2024-01-11T12:41:03;3.30;99.90
42365;DHT22;28498;54.400;18.566;2024-01-11T12:43:31;3.30;99.90
42365;DHT22;28498;54.400;18.566;2024-01-11T12:45:58;3.30;99.90
42365;DHT22;28498;54.400;18.566;2024-01-11T12:48:26;3.30;99.90
42365;DHT22;28498;54.400;18.566;2024-01-11T12:50:53;3.30;99.90
42365;DHT22;28498;54.400;18.566;2024-01-11T12:53:39;3.30;99.90
42365;DHT22;28498;54.400;18.566;2024-01-11T12:56:08;3.30;99.90
42365;DHT22;28498;54.400;18.566;2024-01-11T12:58:37;3.40;99.90
42365;DHT22;28498;54.400;18.566;2024-01-11T13:01:06;3.40;99.90
42365;DHT22;28498;54.400;18.566;2024-01-11T13:03:35;3.40;99.90
42365;DHT22;28498;54.400;18.566;2024-01-11T13:06:03;3.50;99.90
42365;DHT22;28498;54.400;18.566;2024-01-11T13:08:32;3.60;99.90
42365;DHT22;28498;54.400;18.566;2024-01-11T13:11:01;3.50;99.90
42365;DHT22;28498;54.400;18.566;2024-01-11T13:13:34;3.50;99.90
42365;DHT22;28498;54.400;18.566;2024-01-11T13:16:04;3.50;99.90
42365;DHT22;28498;54.400;18.566;2024-01-11T13:18:38;3.40;99.90
42365;DHT22;28498;54.400;18.566;2024-01-11T13:21:05;3.30;99.90
42365;DHT22;28498;54.400;18.566;2024-01-11T13:23:33;3.30;99.90
42365;DHT22;28498;54.400;18.566;2024-01-11T13:26:01;3.20;99.90
42365;DHT22;28498;54.400;18.566;2024-01-11T13:28:29;3.20;99.90
42365;DHT22;28498;54.400;18.566;2024-01-11T13:30:56;3.20;99.90
42365;DHT22;28498;54.400;18.566;2024-01-11T13:33:24;3.20;99.90
42365;DHT22;28498;54.400;18.566;2024-01-11T13:35:51;3.20;99.90
42365;DHT22;28498;54.400;18.566;2024-01-11T13:38:19;3.20;99.90
42365;DHT22;28498;54.400;18.566;2024-01-11T13:40:50;3.20;99.90
42365;DHT22;28498;54.400;18.566;2024-01-11T13:43:17;3.20;99.90
42365;DHT22;28498;54.400;18.566;2024-01-11T13:45:45;3.20;99.90
42365;DHT22;28498;54.400;18.566;2024-01-11T13:48:12;3.20;99.90
42365;DHT22;28498;54.400;18.566;2024-01-11T13:50:40;3.20;99.90
42365;DHT22;28498;54.400;18.566;2024-01-11T13:53:07;3.20;99.90
42365;DHT22;28498;54.400;18.566;2024-01-11T13:55:34;3.20;99.90
42365;DHT22;28498;54.400;18.566;2024-01-11T13:58:06;3.20;99.90
42365;DHT22;28498;54.400;18.566;2024-01-11T14:00:33;3.20;99.90
42365;DHT22;28498;54.400;18.566;2024-01-11T14:03:01;3.30;99.90
42365;DHT22;28498;54.400;18.566;2024-01-11T14:05:28;3.20;99.90
42365;DHT22;28498;54.400;18.566;2024-01-11T14:07:56;3.20;99.90
42365;DHT22;28498;54.400;18.566;2024-01-11T14:10:26;3.10;99.90
42365;DHT22;28498;54.400;18.566;2024-01-11T14:12:55;3.20;99.90
42365;DHT22;28498;54.400;18.566;2024-01-11T14:15:31;3.20;99.90
42365;DHT22;28498;54.400;18.566;2024-01-11T14:17:58;3.10;99.90
42365;DHT22;28498;54.400;18.566;2024-01-11T14:20:25;3.10;99.90
42365;DHT22;28498;54.400;18.566;2024-01-11T14:22:53;3.10;99.90
42365;DHT22;28498;54.400;18.566;2024-01-11T14:25:22;3.10;99.90
42365;DHT22;28498;54.400;18.566;2024-01-11T14:27:51;3.10;99.90
42365;DHT22;28498;54.400;18.566;2024-01-11T14:34:00;3.10;99.90
42365;DHT22;28498;54.400;18.566;2024-01-11T14:36:28;3.20;99.90
42365;DHT22;28498;54.400;18.566;2024-01-11T14:38:55;3.10;99.90
42365;DHT22;28498;54.400;18.566;2024-01-11T14:41:22;3.10;99.90
42365;DHT22;28498;54.400;18.566;2024-01-11T14:43:49;3.10;99.90
42365;DHT22;28498;54.400;18.566;2024-01-11T14:46:16;3.10;99.90
42365;DHT22;28498;54.400;18.566;2024-01-11T14:48:44;3.00;99.90
42365;DHT22;28498;54.400;18.566;2024-01-11T14:51:11;3.10;99.90
42365;DHT22;28498;54.400;18.566;2024-01-11T14:53:38;3.10;99.90
42365;DHT22;28498;54.400;18.566;2024-01-11T14:56:06;3.10;99.90
42365;DHT22;28498;54.400;18.566;2024-01-11T14:58:33;2.90;99.90
42365;DHT22;28498;54.400;18.566;2024-01-11T15:01:00;2.90;99.90
42365;DHT22;28498;54.400;18.566;2024-01-11T15:03:27;2.80;99.90
42365;DHT22;28498;54.400;18.566;2024-01-11T15:05:54;2.80;99.90
42365;DHT22;28498;54.400;18.566;2024-01-11T15:08:22;2.80;99.90
42365;DHT22;28498;54.400;18.566;2024-01-11T15:10:49;2.80;99.90
42365;DHT22;28498;54.400;18.566;2024-01-11T15:13:16;2.90;99.90
42365;DHT22;28498;54.400;18.566;2024-01-11T15:15:43;2.90;99.90
42365;DHT22;28498;54.400;18.566;2024-01-11T15:18:10;2.80;99.90
42365;DHT22;28498;54.400;18.566;2024-01-11T15:20:37;2.90;99.90
42365;DHT22;28498;54.400;18.566;2024-01-11T15:23:05;2.90;99.90
42365;DHT22;28498;54.400;18.566;2024-01-11T15:25:32;2.90;99.90
42365;DHT22;28498;54.400;18.566;2024-01-11T15:27:59;2.80;99.90
42365;DHT22;28498;54.400;18.566;2024-01-11T15:30:26;2.70;99.90
42365;DHT22;28498;54.400;18.566;2024-01-11T15:32:53;2.60;99.90
42365;DHT22;28498;54.400;18.566;2024-01-11T15:35:25;2.60;99.90
42365;DHT22;28498;54.400;18.566;2024-01-11T15:37:52;2.50;99.90
42365;DHT22;28498;54.400;18.566;2024-01-11T15:40:19;2.40;99.90
42365;DHT22;28498;54.400;18.566;2024-01-11T15:42:46;2.30;99.90
42365;DHT22;28498;54.400;18.566;2024-01-11T15:45:13;2.30;99.90
42365;DHT22;28498;54.400;18.566;2024-01-11T15:47:40;2.30;99.90
42365;DHT22;28498;54.400;18.566;2024-01-11T15:50:08;2.30;99.90
42365;DHT22;28498;54.400;18.566;2024-01-11T15:52:38;2.40;99.90
42365;DHT22;28498;54.400;18.566;2024-01-11T15:55:06;2.50;99.90
42365;DHT22;28498;54.400;18.566;2024-01-11T15:57:36;2.60;99.90
42365;DHT22;28498;54.400;18.566;2024-01-11T16:00:03;2.60;99.90